Time;durP1;ratioP1;P1;durP2;ratioP2;P2;SDS_P1;SDS_P2;PMS_P1;PMS_P2;Temp;Humidity;BMP_temperature;BMP_pressure;BME280_temperature;BME280_humidity;BME280_pressure;Samples;Min_cycle;Max_cycle;Signal;HPM_P1;HPM_P2
2023/02/09 00:01:30;;;;;;;;;27.67;25.00;;;;;;;;6490340;39;8970;-61
2023/02/09 00:07:33;;;;;;;;;19.67;19.00;;;;;;;;6490226;39;9102;-60
2023/02/09 00:13:37;;;;;;;;;16.00;16.00;;;;;;;;6489384;39;8896;-62
2023/02/09 00:19:39;;;;;;;;;18.00;17.33;;;;;;;;6489781;31;9453;-62
2023/02/09 00:25:43;;;;;;;;;15.67;15.33;;;;;;;;6489482;46;8948;-61
2023/02/09 00:31:47;;;;;;;;;19.00;13.00;;;;;;;;6489079;46;8875;-61
2023/02/09 00:37:49;;;;;;;;;15.67;15.67;;;;;;;;6489979;39;8991;-60
2023/02/09 00:43:53;;;;;;;;;16.00;14.33;;;;;;;;6489943;39;8868;-61
2023/02/09 00:49:58;;;;;;;;;13.67;10.67;;;;;;;;6490552;39;9002;-61
2023/02/09 00:56:03;;;;;;;;;18.00;13.67;;;;;;;;6489244;39;8983;-62
2023/02/09 01:02:05;;;;;;;;;15.33;12.00;;;;;;;;6488331;39;9019;-62
2023/02/09 01:08:08;;;;;;;;;15.00;12.33;;;;;;;;6489575;31;9761;-61
2023/02/09 01:14:10;;;;;;;;;16.00;15.00;;;;;;;;6488977;31;8869;-61
2023/02/09 01:20:15;;;;;;;;;18.67;18.67;;;;;;;;6489714;39;8855;-62
2023/02/09 01:26:18;;;;;;;;;24.67;15.67;;;;;;;;6488843;39;8873;-60
2023/02/09 01:32:20;;;;;;;;;27.67;19.33;;;;;;;;6489244;46;8870;-62
2023/02/09 01:38:23;;;;;;;;;22.67;18.00;;;;;;;;6488269;46;8955;-61
2023/02/09 01:44:36;;;;;;;;;20.33;18.33;;;;;;;;6489660;31;8926;-60
2023/02/09 01:50:42;;;;;;;;;13.67;12.00;;;;;;;;6489338;31;8836;-61
2023/02/09 01:56:49;;;;;;;;;16.67;13.67;;;;;;;;6489627;31;8890;-60
2023/02/09 02:02:56;;;;;;;;;21.00;18.00;;;;;;;;6488399;31;8904;-61
2023/02/09 02:09:08;;;;;;;;;15.00;13.67;;;;;;;;6489012;39;8966;-61
2023/02/09 02:15:11;;;;;;;;;12.67;12.67;;;;;;;;6487884;39;8909;-62
2023/02/09 02:21:43;;;;;;;;;18.67;16.33;;;;;;;;6489494;39;9394;-60
2023/02/09 02:28:13;;;;;;;;;18.33;16.00;;;;;;;;6488304;39;8901;-60
2023/02/09 02:34:20;;;;;;;;;18.00;12.00;;;;;;;;6490357;39;9741;-61
2023/02/09 02:40:34;;;;;;;;;16.00;15.00;;;;;;;;6492029;31;9599;-62
2023/02/09 02:46:47;;;;;;;;;15.67;13.00;;;;;;;;6492013;39;8922;-62
2023/02/09 02:52:55;;;;;;;;;24.67;19.00;;;;;;;;6491421;39;8873;-60
2023/02/09 02:59:04;;;;;;;;;16.00;15.33;;;;;;;;6491699;39;8890;-61
2023/02/09 03:05:08;;;;;;;;;30.33;21.33;;;;;;;;6490849;31;8992;-61
2023/02/09 03:11:10;;;;;;;;;28.00;26.33;;;;;;;;6490306;31;8932;-62
2023/02/09 03:17:28;;;;;;;;;35.75;33.75;;;;;;;;6489345;39;9051;-61
2023/02/09 03:23:51;;;;;;;;;27.67;23.67;;;;;;;;6489164;39;8907;-60
2023/02/09 03:29:59;;;;;;;;;39.67;36.00;;;;;;;;6489249;46;8861;-61
2023/02/09 03:36:08;;;;;;;;;37.00;30.00;;;;;;;;6489643;39;8980;-60
2023/02/09 03:42:11;;;;;;;;;28.67;23.33;;;;;;;;6489936;31;9001;-60
2023/02/09 03:48:15;;;;;;;;;35.67;34.00;;;;;;;;6489042;46;8898;-61
2023/02/09 03:54:19;;;;;;;;;36.33;34.33;;;;;;;;6489872;39;8983;-60
2023/02/09 04:00:22;;;;;;;;;37.00;35.33;;;;;;;;6489258;39;9055;-62
2023/02/09 04:06:25;;;;;;;;;32.67;25.33;;;;;;;;6489293;46;8900;-61
2023/02/09 04:12:27;;;;;;;;;41.33;35.33;;;;;;;;6488975;39;8931;-60
2023/02/09 04:18:29;;;;;;;;;36.75;33.50;;;;;;;;6488723;46;8903;-62
2023/02/09 04:24:34;;;;;;;;;41.50;38.50;;;;;;;;6489291;39;8883;-60
2023/02/09 04:30:36;;;;;;;;;41.00;32.00;;;;;;;;6488854;46;8915;-62
2023/02/09 04:36:39;;;;;;;;;46.50;38.00;;;;;;;;6488829;31;9075;-61
2023/02/09 04:42:45;;;;;;;;;45.75;38.75;;;;;;;;6488787;46;8966;-61
2023/02/09 04:48:47;;;;;;;;;46.00;37.33;;;;;;;;6488267;46;8872;-62
2023/02/09 04:54:50;;;;;;;;;32.25;31.00;;;;;;;;6487589;46;8881;-62
2023/02/09 05:07:43;;;;;;;;;42.25;39.00;;;;;;;;6487260;39;9077;-60
2023/02/09 05:13:47;;;;;;;;;50.50;45.00;;;;;;;;6491035;31;8891;-61
2023/02/09 08:33:31;;;;;;;;;43.00;36.33;;;;;;;;6458619;38;52159;-60
2023/02/09 08:39:34;;;;;;;;;46.67;42.33;;;;;;;;6496544;38;8901;-61
2023/02/09 08:45:40;;;;;;;;;24.33;22.00;;;;;;;;6496815;31;8874;-62
2023/02/09 08:51:43;;;;;;;;;25.00;21.67;;;;;;;;6496312;39;9000;-63
2023/02/09 08:57:48;;;;;;;;;28.33;26.00;;;;;;;;6494972;39;8984;-61
2023/02/09 09:03:51;;;;;;;;;42.00;35.33;;;;;;;;6498075;38;8910;-61
2023/02/09 09:09:57;;;;;;;;;48.00;44.33;;;;;;;;6497555;31;8907;-61
2023/02/09 09:16:01;;;;;;;;;26.00;22.67;;;;;;;;6497938;31;8925;-62
2023/02/09 09:22:06;;;;;;;;;31.33;28.67;;;;;;;;6497558;38;8827;-61
2023/02/09 09:28:10;;;;;;;;;19.67;17.33;;;;;;;;6496984;31;8946;-63
2023/02/09 09:34:16;;;;;;;;;53.00;39.33;;;;;;;;6498007;38;9518;-61
2023/02/09 09:40:22;;;;;;;;;25.75;23.50;;;;;;;;6492817;39;9450;-61
2023/02/09 09:46:48;;;;;;;;;21.25;21.25;;;;;;;;6488690;46;8844;-63
2023/02/09 09:52:55;;;;;;;;;20.00;15.67;;;;;;;;6488003;46;8863;-61
2023/02/09 09:59:00;;;;;;;;;25.33;22.00;;;;;;;;6488640;39;8801;-62
2023/02/09 10:05:23;;;;;;;;;32.67;27.33;;;;;;;;6486715;39;9103;-62
2023/02/09 10:11:42;;;;;;;;;29.67;23.33;;;;;;;;6487361;39;8863;-62
2023/02/09 10:17:59;;;;;;;;;22.33;21.00;;;;;;;;6487829;39;8875;-60
2023/02/09 10:24:01;;;;;;;;;26.00;24.00;;;;;;;;6487058;39;8868;-63
2023/02/09 10:30:19;;;;;;;;;27.00;19.00;;;;;;;;6488254;39;8958;-62
2023/02/09 10:36:31;;;;;;;;;28.67;27.33;;;;;;;;6487846;39;9369;-62
2023/02/09 10:42:36;;;;;;;;;25.00;25.00;;;;;;;;6487600;39;9450;-61
2023/02/09 10:48:43;;;;;;;;;20.67;19.67;;;;;;;;6486630;39;8930;-61
2023/02/09 10:54:51;;;;;;;;;37.67;32.33;;;;;;;;6486145;39;8858;-61
2023/02/09 11:01:00;;;;;;;;;21.00;21.00;;;;;;;;6488158;31;8876;-61
2023/02/09 11:07:16;;;;;;;;;21.00;20.00;;;;;;;;6487513;31;8879;-61
2023/02/09 11:13:26;;;;;;;;;23.25;22.00;;;;;;;;6307518;39;10001149;-62
2023/02/09 11:19:34;;;;;;;;;24.00;21.00;;;;;;;;6487952;39;8859;-60
2023/02/09 11:26:01;;;;;;;;;24.00;22.00;;;;;;;;6488296;46;8804;-62
2023/02/09 11:32:18;;;;;;;;;29.00;21.25;;;;;;;;6488010;31;9705;-62
2023/02/09 11:38:39;;;;;;;;;29.25;23.00;;;;;;;;6489892;31;8918;-63
2023/02/09 11:45:00;;;;;;;;;22.25;19.00;;;;;;;;6487961;46;8875;-62
2023/02/09 11:51:21;;;;;;;;;18.25;18.25;;;;;;;;6487189;46;8891;-62
2023/02/09 11:57:36;;;;;;;;;18.25;18.25;;;;;;;;6488009;39;9035;-63
2023/02/09 12:03:55;;;;;;;;;22.25;19.00;;;;;;;;6487699;46;8900;-65
2023/02/09 12:10:41;;;;;;;;;27.00;24.50;;;;;;;;6487610;31;8842;-60
2023/02/09 12:16:57;;;;;;;;;33.25;30.50;;;;;;;;6485435;31;8906;-64
2023/02/09 12:23:30;;;;;;;;;45.25;41.50;;;;;;;;6486066;39;9584;-61
2023/02/09 12:29:39;;;;;;;;;41.00;34.25;;;;;;;;6483974;31;8990;-65
2023/02/09 12:35:56;;;;;;;;;27.25;25.00;;;;;;;;6486265;47;8879;-63
2023/02/09 12:42:24;;;;;;;;;33.00;30.50;;;;;;;;6486834;39;9022;-61
2023/02/09 12:48:27;;;;;;;;;35.50;34.00;;;;;;;;6487397;31;9501;-61
2023/02/09 12:54:48;;;;;;;;;43.00;34.00;;;;;;;;6487379;39;9504;-63
2023/02/09 13:00:55;;;;;;;;;51.25;42.00;;;;;;;;6486024;39;8847;-61
2023/02/09 13:07:00;;;;;;;;;42.50;33.75;;;;;;;;6486583;39;8931;-65
2023/02/09 13:13:18;;;;;;;;;37.25;31.00;;;;;;;;6488006;39;8879;-60
2023/02/09 13:19:46;;;;;;;;;42.00;38.25;;;;;;;;6489035;31;8876;-63
2023/02/09 13:25:59;;;;;;;;;42.50;36.25;;;;;;;;6488929;46;8960;-60
2023/02/09 13:32:20;;;;;;;;;42.50;31.50;;;;;;;;6489546;39;9325;-61
2023/02/09 13:38:26;;;;;;;;;34.50;30.00;;;;;;;;6487559;39;8950;-60
2023/02/09 13:44:32;;;;;;;;;44.00;38.50;;;;;;;;6485469;31;8880;-61
2023/02/09 13:50:35;;;;;;;;;48.33;42.67;;;;;;;;6488654;39;8945;-60
2023/02/09 13:56:41;;;;;;;;;42.00;37.33;;;;;;;;6486829;39;9009;-62
2023/02/09 14:02:49;;;;;;;;;41.67;39.67;;;;;;;;6487367;39;9005;-61
2023/02/09 14:08:54;;;;;;;;;42.67;34.67;;;;;;;;6488041;31;9055;-62
2023/02/09 14:21:38;;;;;;;;;71.33;59.00;;;;;;;;6489020;39;8929;-61
2023/02/09 14:27:46;;;;;;;;;37.00;36.00;;;;;;;;6486026;46;8938;-62
2023/02/09 14:33:51;;;;;;;;;39.00;35.25;;;;;;;;6487051;39;9435;-64
2023/02/09 14:40:32;;;;;;;;;30.50;30.00;;;;;;;;6486808;39;8959;-62
2023/02/09 14:46:49;;;;;;;;;26.00;24.00;;;;;;;;6484631;46;8915;-63
2023/02/09 14:53:10;;;;;;;;;26.33;23.33;;;;;;;;6487969;39;8933;-62
2023/02/09 14:59:16;;;;;;;;;35.33;33.00;;;;;;;;6488135;39;9518;-62
2023/02/09 15:05:24;;;;;;;;;32.67;29.33;;;;;;;;6488578;31;8990;-63
2023/02/09 15:17:53;;;;;;;;;28.00;27.00;;;;;;;;6488903;39;9009;-63
2023/02/09 15:23:56;;;;;;;;;30.33;27.67;;;;;;;;6488266;31;8888;-62
2023/02/09 15:29:58;;;;;;;;;27.33;24.00;;;;;;;;6488341;39;9001;-62
2023/02/09 15:36:05;;;;;;;;;26.33;26.33;;;;;;;;6487433;39;8931;-61
2023/02/09 15:48:36;;;;;;;;;34.33;28.67;;;;;;;;6488000;46;8908;-62
2023/02/09 15:54:39;;;;;;;;;31.67;27.00;;;;;;;;6487345;31;9091;-62
2023/02/09 16:00:43;;;;;;;;;31.67;25.67;;;;;;;;6488938;31;8904;-62
2023/02/09 16:06:52;;;;;;;;;28.33;27.00;;;;;;;;6487488;39;9122;-60
2023/02/09 16:12:55;;;;;;;;;29.33;26.33;;;;;;;;6487356;39;8991;-61
2023/02/09 16:18:57;;;;;;;;;25.67;22.67;;;;;;;;6487960;31;8891;-63
2023/02/09 16:25:00;;;;;;;;;24.00;20.00;;;;;;;;6489054;31;8975;-62
2023/02/09 16:31:03;;;;;;;;;24.33;21.33;;;;;;;;6488414;31;8954;-61
2023/02/09 16:37:05;;;;;;;;;30.00;24.00;;;;;;;;6487448;47;8868;-62
2023/02/09 16:43:09;;;;;;;;;17.33;15.00;;;;;;;;6487834;31;8844;-62
2023/02/09 16:49:38;;;;;;;;;20.33;18.00;;;;;;;;6487554;46;8875;-61
2023/02/09 16:55:40;;;;;;;;;22.00;21.67;;;;;;;;6489028;31;9045;-61
2023/02/09 17:01:43;;;;;;;;;23.67;19.67;;;;;;;;6489386;31;8957;-63
2023/02/09 17:07:52;;;;;;;;;21.67;18.67;;;;;;;;6489203;46;8942;-62
2023/02/09 17:13:56;;;;;;;;;28.00;25.00;;;;;;;;6489642;39;8971;-62
2023/02/09 17:19:59;;;;;;;;;22.00;22.00;;;;;;;;6489604;39;8893;-64
2023/02/09 17:26:03;;;;;;;;;21.33;19.00;;;;;;;;6488779;46;8868;-61
2023/02/09 17:32:05;;;;;;;;;18.33;18.00;;;;;;;;6489811;31;8966;-61
2023/02/09 17:38:21;;;;;;;;;19.67;19.00;;;;;;;;6489260;46;8860;-61
2023/02/09 17:44:25;;;;;;;;;20.67;17.00;;;;;;;;6489938;39;8867;-62
2023/02/09 17:50:48;;;;;;;;;20.33;16.00;;;;;;;;6489852;39;8995;-61
2023/02/09 17:56:51;;;;;;;;;24.33;19.67;;;;;;;;6489750;39;9518;-61
2023/02/09 18:02:54;;;;;;;;;21.33;18.67;;;;;;;;6489568;39;9006;-61
2023/02/09 18:09:02;;;;;;;;;26.33;21.33;;;;;;;;6490268;39;8894;-61
2023/02/09 18:15:19;;;;;;;;;29.33;27.00;;;;;;;;6489634;39;8876;-61
2023/02/09 18:21:22;;;;;;;;;51.67;45.00;;;;;;;;6488480;46;8851;-62
2023/02/09 18:27:25;;;;;;;;;30.67;25.00;;;;;;;;6489900;31;8853;-61
2023/02/09 18:33:27;;;;;;;;;29.33;27.00;;;;;;;;6488494;39;8927;-63
2023/02/09 18:39:30;;;;;;;;;30.00;25.67;;;;;;;;6489576;31;8835;-60
2023/02/09 18:45:33;;;;;;;;;29.33;27.67;;;;;;;;6489904;31;8925;-63
2023/02/09 18:51:35;;;;;;;;;34.33;25.00;;;;;;;;6488802;39;8915;-63
2023/02/09 18:57:41;;;;;;;;;26.67;21.67;;;;;;;;6488604;46;8867;-61
2023/02/09 19:03:44;;;;;;;;;22.00;21.00;;;;;;;;6488200;31;9022;-63
2023/02/09 19:09:46;;;;;;;;;25.67;21.67;;;;;;;;6487966;46;9009;-62
2023/02/09 19:15:48;;;;;;;;;21.00;19.67;;;;;;;;6488991;31;9013;-61
2023/02/09 19:21:52;;;;;;;;;24.00;21.00;;;;;;;;6488731;39;8945;-61
2023/02/09 19:27:55;;;;;;;;;23.67;20.33;;;;;;;;6488757;39;8900;-62
2023/02/09 19:33:58;;;;;;;;;25.67;24.00;;;;;;;;6488906;39;8847;-60
2023/02/09 19:40:03;;;;;;;;;26.00;22.67;;;;;;;;6489027;46;8923;-62
2023/02/09 19:46:08;;;;;;;;;24.33;20.33;;;;;;;;6489031;39;9458;-62
2023/02/09 19:52:13;;;;;;;;;22.00;22.00;;;;;;;;6487819;39;8962;-61
2023/02/09 19:58:16;;;;;;;;;25.00;24.00;;;;;;;;6489171;39;8889;-61
2023/02/09 20:04:19;;;;;;;;;27.67;22.00;;;;;;;;6488664;39;9090;-60
2023/02/09 20:10:23;;;;;;;;;23.00;19.33;;;;;;;;6488898;39;8945;-61
2023/02/09 20:16:26;;;;;;;;;20.67;18.00;;;;;;;;6487904;46;8867;-61
2023/02/09 20:22:28;;;;;;;;;19.00;19.00;;;;;;;;6487842;39;8874;-62
2023/02/09 20:28:31;;;;;;;;;18.33;15.67;;;;;;;;6488764;39;8907;-61
2023/02/09 20:34:34;;;;;;;;;19.67;17.33;;;;;;;;6487893;31;8914;-60
2023/02/09 20:40:41;;;;;;;;;19.00;16.00;;;;;;;;6486777;39;8872;-61
2023/02/09 20:46:56;;;;;;;;;27.67;20.33;;;;;;;;6488312;39;8828;-61
2023/02/09 20:53:01;;;;;;;;;13.67;13.67;;;;;;;;6488341;31;8883;-61
2023/02/09 20:59:06;;;;;;;;;17.33;14.33;;;;;;;;6488263;39;8855;-62
2023/02/09 21:05:08;;;;;;;;;21.00;16.00;;;;;;;;6487027;47;8908;-61
2023/02/09 21:11:10;;;;;;;;;17.33;13.00;;;;;;;;6488254;31;8910;-60
2023/02/09 21:17:13;;;;;;;;;13.00;13.00;;;;;;;;6486445;39;8875;-63
2023/02/09 21:23:17;;;;;;;;;21.33;16.67;;;;;;;;6487676;39;8890;-61
2023/02/09 21:29:20;;;;;;;;;28.67;22.00;;;;;;;;6487374;39;8924;-60
2023/02/09 21:35:23;;;;;;;;;23.00;20.33;;;;;;;;6487958;39;8993;-61
2023/02/09 21:47:47;;;;;;;;;32.33;26.33;;;;;;;;6489874;39;8890;-60
2023/02/09 21:53:49;;;;;;;;;36.67;27.67;;;;;;;;6489602;46;8943;-61
2023/02/09 21:59:52;;;;;;;;;34.67;30.33;;;;;;;;6489344;31;8914;-61
2023/02/09 22:05:58;;;;;;;;;47.33;42.00;;;;;;;;6489484;39;8963;-61
2023/02/09 22:12:00;;;;;;;;;56.67;49.00;;;;;;;;6490110;39;8859;-62
2023/02/09 22:18:04;;;;;;;;;60.67;48.33;;;;;;;;6489843;39;8914;-62
2023/02/09 22:24:06;;;;;;;;;66.75;54.50;;;;;;;;6489907;31;8925;-61
2023/02/09 22:30:09;;;;;;;;;76.00;53.00;;;;;;;;6489358;39;9131;-60
2023/02/09 22:36:14;;;;;;;;;63.50;50.50;;;;;;;;6489345;46;8878;-60
2023/02/09 22:42:16;;;;;;;;;73.50;59.50;;;;;;;;6489226;46;8868;-60
2023/02/09 22:48:19;;;;;;;;;76.50;53.00;;;;;;;;6489402;39;8842;-60
2023/02/09 22:54:22;;;;;;;;;76.75;57.25;;;;;;;;6489098;39;8912;-60
2023/02/09 23:00:24;;;;;;;;;70.50;57.00;;;;;;;;6488983;39;8885;-61
2023/02/09 23:06:28;;;;;;;;;72.25;53.75;;;;;;;;6488904;31;8989;-59
2023/02/09 23:12:30;;;;;;;;;60.00;50.50;;;;;;;;6488333;46;8989;-62
2023/02/09 23:18:33;;;;;;;;;74.00;55.00;;;;;;;;6488395;39;8918;-60
2023/02/09 23:24:35;;;;;;;;;61.75;52.25;;;;;;;;6489743;31;8883;-60
2023/02/09 23:30:37;;;;;;;;;71.25;57.00;;;;;;;;6488384;31;8899;-61
2023/02/09 23:36:40;;;;;;;;;74.50;58.00;;;;;;;;6488052;39;8879;-60
2023/02/09 23:42:42;;;;;;;;;53.67;47.33;;;;;;;;6489448;31;8923;-61
2023/02/09 23:48:44;;;;;;;;;63.75;51.75;;;;;;;;6488646;39;9623;-63
2023/02/09 23:54:47;;;;;;;;;54.50;45.00;;;;;;;;6488344;46;8812;-61
